sensor_id;sensor_type;location;lat;lon;timestamp;pressure;altitude;pressure_sealevel;temperature;humidity
13013;BME280;22580;57.670;12.006;2022-11-20T00:00:29;101348.22;;;8.23;63.73
13013;BME280;22580;57.670;12.006;2022-11-20T00:02:56;101399.44;;;7.58;66.97
13013;BME280;22580;57.670;12.006;2022-11-20T00:05:24;101426.41;;;8.74;63.72
13013;BME280;22580;57.670;12.006;2022-11-20T00:07:51;101428.41;;;8.36;65.56
13013;BME280;22580;57.670;12.006;2022-11-20T00:10:18;101429.19;;;8.38;63.65
13013;BME280;22580;57.670;12.006;2022-11-20T00:12:45;101416.34;;;7.57;66.74
13013;BME280;22580;57.670;12.006;2022-11-20T00:15:14;101434.75;;;7.43;68.16
13013;BME280;22580;57.670;12.006;2022-11-20T00:17:41;101368.84;;;7.31;67.39
13013;BME280;22580;57.670;12.006;2022-11-20T00:20:09;101431.75;;;7.50;67.41
13013;BME280;22580;57.670;12.006;2022-11-20T00:22:36;101418.28;;;7.16;68.82
13013;BME280;22580;57.670;12.006;2022-11-20T00:25:04;101385.53;;;7.15;68.72
13013;BME280;22580;57.670;12.006;2022-11-20T00:27:31;101382.66;;;6.62;70.14
13013;BME280;22580;57.670;12.006;2022-11-20T00:29:58;101431.00;;;7.66;68.86
13013;BME280;22580;57.670;12.006;2022-11-20T00:32:28;101424.06;;;7.80;67.51
13013;BME280;22580;57.670;12.006;2022-11-20T00:34:55;101434.34;;;7.52;68.24
13013;BME280;22580;57.670;12.006;2022-11-20T00:37:22;101427.41;;;7.67;67.76
13013;BME280;22580;57.670;12.006;2022-11-20T00:39:49;101404.84;;;7.56;67.33
13013;BME280;22580;57.670;12.006;2022-11-20T00:42:17;101412.88;;;8.95;63.11
13013;BME280;22580;57.670;12.006;2022-11-20T00:44:44;101380.53;;;9.01;61.40
13013;BME280;22580;57.670;12.006;2022-11-20T00:47:11;101426.44;;;8.90;61.21
13013;BME280;22580;57.670;12.006;2022-11-20T00:49:40;101418.06;;;8.47;62.87
13013;BME280;22580;57.670;12.006;2022-11-20T00:52:07;101420.22;;;8.22;64.63
13013;BME280;22580;57.670;12.006;2022-11-20T00:54:34;101384.31;;;7.95;64.69
13013;BME280;22580;57.670;12.006;2022-11-20T00:57:01;101410.59;;;8.19;65.46
13013;BME280;22580;57.670;12.006;2022-11-20T00:59:29;101414.66;;;8.27;65.15
13013;BME280;22580;57.670;12.006;2022-11-20T01:01:57;101412.03;;;7.54;66.34
13013;BME280;22580;57.670;12.006;2022-11-20T01:04:24;101357.72;;;7.22;66.11
13013;BME280;22580;57.670;12.006;2022-11-20T01:06:53;101428.84;;;7.91;66.49
13013;BME280;22580;57.670;12.006;2022-11-20T01:09:20;101424.59;;;8.06;64.63
13013;BME280;22580;57.670;12.006;2022-11-20T01:11:47;101433.59;;;8.90;62.90
13013;BME280;22580;57.670;12.006;2022-11-20T01:14:17;101445.50;;;7.02;68.11
13013;BME280;22580;57.670;12.006;2022-11-20T01:16:46;101422.97;;;7.48;67.17
13013;BME280;22580;57.670;12.006;2022-11-20T01:19:15;101391.34;;;7.23;66.21
13013;BME280;22580;57.670;12.006;2022-11-20T01:21:44;101411.03;;;7.38;67.47
13013;BME280;22580;57.670;12.006;2022-11-20T01:24:15;101446.38;;;7.03;69.00
13013;BME280;22580;57.670;12.006;2022-11-20T01:26:43;101395.69;;;7.98;65.40
13013;BME280;22580;57.670;12.006;2022-11-20T01:29:13;101453.13;;;7.10;68.17
13013;BME280;22580;57.670;12.006;2022-11-20T01:31:40;101434.25;;;6.77;69.90
13013;BME280;22580;57.670;12.006;2022-11-20T01:34:10;101452.41;;;7.06;69.50
13013;BME280;22580;57.670;12.006;2022-11-20T01:36:38;101461.47;;;6.41;71.89
13013;BME280;22580;57.670;12.006;2022-11-20T01:39:07;101449.94;;;5.78;74.97
13013;BME280;22580;57.670;12.006;2022-11-20T01:41:38;101384.97;;;6.09;74.20
13013;BME280;22580;57.670;12.006;2022-11-20T01:44:47;101448.31;;;7.18;71.38
13013;BME280;22580;57.670;12.006;2022-11-20T01:47:17;101422.44;;;6.64;74.08
13013;BME280;22580;57.670;12.006;2022-11-20T01:49:50;101407.03;;;6.72;72.31
13013;BME280;22580;57.670;12.006;2022-11-20T01:52:20;101401.03;;;7.24;70.35
13013;BME280;22580;57.670;12.006;2022-11-20T01:54:51;101409.69;;;8.02;67.58
13013;BME280;22580;57.670;12.006;2022-11-20T01:57:23;101407.59;;;8.26;66.08
13013;BME280;22580;57.670;12.006;2022-11-20T01:59:55;101423.94;;;8.01;66.52
13013;BME280;22580;57.670;12.006;2022-11-20T02:02:24;101378.16;;;8.11;65.15
13013;BME280;22580;57.670;12.006;2022-11-20T02:04:53;101407.53;;;8.27;65.68
13013;BME280;22580;57.670;12.006;2022-11-20T02:07:22;101409.00;;;7.98;67.10
13013;BME280;22580;57.670;12.006;2022-11-20T02:09:51;101363.84;;;7.61;66.67
13013;BME280;22580;57.670;12.006;2022-11-20T02:12:18;101399.75;;;8.05;66.72
13013;BME280;22580;57.670;12.006;2022-11-20T02:15:05;101399.50;;;7.75;66.89
13013;BME280;22580;57.670;12.006;2022-11-20T02:17:32;101405.31;;;8.18;65.74
13013;BME280;22580;57.670;12.006;2022-11-20T02:19:59;101386.44;;;7.14;67.81
13013;BME280;22580;57.670;12.006;2022-11-20T02:22:31;101354.31;;;7.38;68.07
13013;BME280;22580;57.670;12.006;2022-11-20T02:25:03;101372.22;;;6.97;69.90
13013;BME280;22580;57.670;12.006;2022-11-20T02:27:32;101407.56;;;6.99;70.18
13013;BME280;22580;57.670;12.006;2022-11-20T02:30:01;101362.19;;;6.84;71.38
13013;BME280;22580;57.670;12.006;2022-11-20T02:32:31;101351.81;;;7.16;69.52
13013;BME280;22580;57.670;12.006;2022-11-20T02:35:06;101391.25;;;7.06;71.00
13013;BME280;22580;57.670;12.006;2022-11-20T02:37:36;101367.09;;;8.19;66.98
13013;BME280;22580;57.670;12.006;2022-11-20T02:40:07;101381.72;;;7.93;66.46
13013;BME280;22580;57.670;12.006;2022-11-20T02:42:34;101388.63;;;7.97;66.55
13013;BME280;22580;57.670;12.006;2022-11-20T02:45:02;101391.50;;;7.93;67.58
13013;BME280;22580;57.670;12.006;2022-11-20T02:47:29;101376.63;;;7.71;67.58
13013;BME280;22580;57.670;12.006;2022-11-20T02:49:56;101377.28;;;8.11;66.97
13013;BME280;22580;57.670;12.006;2022-11-20T02:52:24;101385.50;;;8.23;66.71
13013;BME280;22580;57.670;12.006;2022-11-20T02:54:51;101389.16;;;8.73;63.94
13013;BME280;22580;57.670;12.006;2022-11-20T02:57:20;101378.06;;;9.13;62.93
13013;BME280;22580;57.670;12.006;2022-11-20T02:59:47;101368.00;;;8.70;62.77
13013;BME280;22580;57.670;12.006;2022-11-20T03:02:14;101349.72;;;7.95;65.70
13013;BME280;22580;57.670;12.006;2022-11-20T03:04:41;101375.47;;;8.96;63.08
13013;BME280;22580;57.670;12.006;2022-11-20T03:07:08;101373.78;;;8.45;64.67
13013;BME280;22580;57.670;12.006;2022-11-20T03:09:35;101366.22;;;7.67;67.50
13013;BME280;22580;57.670;12.006;2022-11-20T03:12:03;101365.06;;;8.24;66.29
13013;BME280;22580;57.670;12.006;2022-11-20T03:14:31;101356.91;;;7.75;66.87
13013;BME280;22580;57.670;12.006;2022-11-20T03:16:58;101280.50;;;7.60;66.70
13013;BME280;22580;57.670;12.006;2022-11-20T03:19:26;101358.88;;;8.06;66.58
13013;BME280;22580;57.670;12.006;2022-11-20T03:21:53;101312.47;;;7.77;67.31
13013;BME280;22580;57.670;12.006;2022-11-20T03:24:20;101323.22;;;7.21;69.33
13013;BME280;22580;57.670;12.006;2022-11-20T03:26:47;101375.53;;;7.39;69.57
13013;BME280;22580;57.670;12.006;2022-11-20T03:29:14;101368.63;;;7.16;70.89
13013;BME280;22580;57.670;12.006;2022-11-20T03:31:43;101362.16;;;7.77;70.33
13013;BME280;22580;57.670;12.006;2022-11-20T03:34:10;101356.47;;;8.53;67.11
13013;BME280;22580;57.670;12.006;2022-11-20T03:36:38;101360.53;;;7.74;68.89
13013;BME280;22580;57.670;12.006;2022-11-20T03:39:05;101356.75;;;7.42;70.02
13013;BME280;22580;57.670;12.006;2022-11-20T03:41:37;101362.13;;;7.60;69.64
13013;BME280;22580;57.670;12.006;2022-11-20T03:44:06;101374.38;;;7.07;72.09
13013;BME280;22580;57.670;12.006;2022-11-20T03:46:34;101371.34;;;6.96;73.24
13013;BME280;22580;57.670;12.006;2022-11-20T03:49:02;101366.84;;;7.72;70.38
13013;BME280;22580;57.670;12.006;2022-11-20T03:51:31;101373.44;;;7.08;72.21
13013;BME280;22580;57.670;12.006;2022-11-20T03:54:01;101346.84;;;7.46;71.82
13013;BME280;22580;57.670;12.006;2022-11-20T03:56:30;101341.41;;;8.01;68.81
13013;BME280;22580;57.670;12.006;2022-11-20T03:58:58;101345.72;;;8.20;68.16
13013;BME280;22580;57.670;12.006;2022-11-20T04:01:28;101338.38;;;8.08;68.33
13013;BME280;22580;57.670;12.006;2022-11-20T04:03:56;101312.03;;;6.96;71.38
13013;BME280;22580;57.670;12.006;2022-11-20T04:06:26;101345.94;;;7.09;71.72
13013;BME280;22580;57.670;12.006;2022-11-20T04:08:54;101320.47;;;6.47;73.30
13013;BME280;22580;57.670;12.006;2022-11-20T04:11:23;101349.41;;;6.93;72.60
13013;BME280;22580;57.670;12.006;2022-11-20T04:13:53;101334.69;;;7.40;71.43
13013;BME280;22580;57.670;12.006;2022-11-20T04:16:29;101326.34;;;5.95;75.78
13013;BME280;22580;57.670;12.006;2022-11-20T04:18:58;101332.41;;;6.95;74.02
13013;BME280;22580;57.670;12.006;2022-11-20T04:21:27;101323.44;;;7.16;72.44
13013;BME280;22580;57.670;12.006;2022-11-20T04:23:54;101333.69;;;6.29;75.02
13013;BME280;22580;57.670;12.006;2022-11-20T04:26:23;101323.75;;;7.46;71.66
13013;BME280;22580;57.670;12.006;2022-11-20T04:28:51;101299.44;;;7.88;68.96
13013;BME280;22580;57.670;12.006;2022-11-20T04:31:20;101321.91;;;8.17;67.64
13013;BME280;22580;57.670;12.006;2022-11-20T04:33:48;101307.84;;;7.28;68.26
13013;BME280;22580;57.670;12.006;2022-11-20T04:36:18;101296.06;;;6.39;74.22
13013;BME280;22580;57.670;12.006;2022-11-20T04:38:50;101319.78;;;5.61;78.51
13013;BME280;22580;57.670;12.006;2022-11-20T04:41:20;101321.84;;;5.11;81.69
13013;BME280;22580;57.670;12.006;2022-11-20T04:43:48;101273.59;;;5.45;80.37
13013;BME280;22580;57.670;12.006;2022-11-20T04:46:15;101260.75;;;5.98;75.38
13013;BME280;22580;57.670;12.006;2022-11-20T04:48:42;101309.72;;;6.50;77.13
13013;BME280;22580;57.670;12.006;2022-11-20T04:51:09;101316.16;;;5.20;78.68
13013;BME280;22580;57.670;12.006;2022-11-20T04:53:37;101257.34;;;5.32;79.65
13013;BME280;22580;57.670;12.006;2022-11-20T04:56:07;101298.09;;;6.72;75.32
13013;BME280;22580;57.670;12.006;2022-11-20T04:58:37;101291.69;;;7.13;71.79
13013;BME280;22580;57.670;12.006;2022-11-20T05:01:06;101260.31;;;6.07;76.20
13013;BME280;22580;57.670;12.006;2022-11-20T05:03:36;101302.56;;;5.49;79.63
13013;BME280;22580;57.670;12.006;2022-11-20T05:06:04;101298.22;;;5.90;78.04
13013;BME280;22580;57.670;12.006;2022-11-20T05:08:31;101274.50;;;7.56;71.90
13013;BME280;22580;57.670;12.006;2022-11-20T05:11:02;101272.63;;;7.22;71.94
13013;BME280;22580;57.670;12.006;2022-11-20T05:13:31;101253.88;;;5.72;74.99
13013;BME280;22580;57.670;12.006;2022-11-20T05:16:02;101291.28;;;6.27;75.06
13013;BME280;22580;57.670;12.006;2022-11-20T05:18:29;101266.22;;;5.31;79.97
13013;BME280;22580;57.670;12.006;2022-11-20T05:20:56;101219.84;;;4.32;85.14
13013;BME280;22580;57.670;12.006;2022-11-20T05:23:23;101287.25;;;3.72;92.19
13013;BME280;22580;57.670;12.006;2022-11-20T05:25:52;101228.09;;;4.46;88.19
13013;BME280;22580;57.670;12.006;2022-11-20T05:28:20;101268.50;;;4.97;86.68
13013;BME280;22580;57.670;12.006;2022-11-20T05:30:49;101252.88;;;5.12;85.06
13013;BME280;22580;57.670;12.006;2022-11-20T05:33:16;101196.31;;;4.91;83.97
13013;BME280;22580;57.670;12.006;2022-11-20T05:35:44;101253.31;;;5.44;83.21
13013;BME280;22580;57.670;12.006;2022-11-20T05:38:11;101272.28;;;4.91;86.66
13013;BME280;22580;57.670;12.006;2022-11-20T05:40:38;101230.81;;;4.45;89.01
13013;BME280;22580;57.670;12.006;2022-11-20T05:43:05;101261.88;;;5.50;85.01
13013;BME280;22580;57.670;12.006;2022-11-20T05:45:35;101223.13;;;5.26;83.68
13013;BME280;22580;57.670;12.006;2022-11-20T05:48:04;101247.53;;;7.28;76.78
13013;BME280;22580;57.670;12.006;2022-11-20T05:50:33;101211.59;;;6.66;76.56
13013;BME280;22580;57.670;12.006;2022-11-20T05:53:00;101249.75;;;7.01;76.12
13013;BME280;22580;57.670;12.006;2022-11-20T05:55:27;101243.38;;;6.49;77.42
13013;BME280;22580;57.670;12.006;2022-11-20T05:57:58;101256.59;;;6.50;77.50
13013;BME280;22580;57.670;12.006;2022-11-20T06:00:25;101246.13;;;6.85;75.41
13013;BME280;22580;57.670;12.006;2022-11-20T06:02:52;101201.84;;;6.09;77.69
13013;BME280;22580;57.670;12.006;2022-11-20T06:05:21;101253.41;;;5.63;80.79
13013;BME280;22580;57.670;12.006;2022-11-20T06:07:48;101224.34;;;5.39;82.37
13013;BME280;22580;57.670;12.006;2022-11-20T06:10:15;101232.94;;;5.86;81.54
13013;BME280;22580;57.670;12.006;2022-11-20T06:12:42;101239.59;;;6.73;77.59
13013;BME280;22580;57.670;12.006;2022-11-20T06:15:10;101240.69;;;5.28;83.00
13013;BME280;22580;57.670;12.006;2022-11-20T06:17:37;101234.50;;;5.50;79.69
13013;BME280;22580;57.670;12.006;2022-11-20T06:20:05;101233.75;;;4.82;87.18
13013;BME280;22580;57.670;12.006;2022-11-20T06:22:33;101235.91;;;5.58;85.68
13013;BME280;22580;57.670;12.006;2022-11-20T06:25:00;101181.38;;;5.31;84.54
13013;BME280;22580;57.670;12.006;2022-11-20T06:27:27;101175.22;;;5.71;80.58
13013;BME280;22580;57.670;12.006;2022-11-20T06:29:54;101158.56;;;4.65;85.16
13013;BME280;22580;57.670;12.006;2022-11-20T06:32:21;101213.16;;;5.73;84.67
13013;BME280;22580;57.670;12.006;2022-11-20T06:34:48;101216.94;;;4.83;87.77
13013;BME280;22580;57.670;12.006;2022-11-20T06:37:15;101213.66;;;4.55;89.69
13013;BME280;22580;57.670;12.006;2022-11-20T06:39:44;101210.09;;;5.42;87.69
13013;BME280;22580;57.670;12.006;2022-11-20T06:42:13;101198.59;;;4.79;88.13
13013;BME280;22580;57.670;12.006;2022-11-20T06:44:40;101218.06;;;5.62;85.57
13013;BME280;22580;57.670;12.006;2022-11-20T06:47:08;101204.66;;;5.45;84.66
13013;BME280;22580;57.670;12.006;2022-11-20T06:49:35;101172.38;;;5.15;85.01
13013;BME280;22580;57.670;12.006;2022-11-20T06:52:03;101205.19;;;6.89;78.59
13013;BME280;22580;57.670;12.006;2022-11-20T06:54:31;101200.72;;;6.89;76.88
13013;BME280;22580;57.670;12.006;2022-11-20T06:56:59;101174.09;;;7.43;73.95
13013;BME280;22580;57.670;12.006;2022-11-20T06:59:27;101196.56;;;7.87;72.11
13013;BME280;22580;57.670;12.006;2022-11-20T07:01:54;101185.88;;;6.67;76.08
13013;BME280;22580;57.670;12.006;2022-11-20T07:04:21;101206.50;;;6.43;78.52
13013;BME280;22580;57.670;12.006;2022-11-20T07:06:48;101200.22;;;6.81;76.48
13013;BME280;22580;57.670;12.006;2022-11-20T07:09:15;101196.38;;;6.70;76.54
13013;BME280;22580;57.670;12.006;2022-11-20T07:11:43;101207.31;;;5.65;79.53
13013;BME280;22580;57.670;12.006;2022-11-20T07:14:12;101206.41;;;6.25;79.74
13013;BME280;22580;57.670;12.006;2022-11-20T07:16:39;101211.47;;;6.11;79.61
13013;BME280;22580;57.670;12.006;2022-11-20T07:19:06;101155.66;;;6.13;79.48
13013;BME280;22580;57.670;12.006;2022-11-20T07:21:33;101200.56;;;6.17;79.92
13013;BME280;22580;57.670;12.006;2022-11-20T07:24:00;101188.06;;;7.81;73.51
13013;BME280;22580;57.670;12.006;2022-11-20T07:26:27;101156.97;;;7.81;70.55
13013;BME280;22580;57.670;12.006;2022-11-20T07:28:55;101185.38;;;6.40;76.50
13013;BME280;22580;57.670;12.006;2022-11-20T07:31:23;101185.91;;;7.20;75.59
13013;BME280;22580;57.670;12.006;2022-11-20T07:33:50;101191.19;;;6.67;76.48
13013;BME280;22580;57.670;12.006;2022-11-20T07:36:19;101152.75;;;6.00;77.10
13013;BME280;22580;57.670;12.006;2022-11-20T07:38:46;101186.16;;;4.81;85.33
13013;BME280;22580;57.670;12.006;2022-11-20T07:41:13;101141.22;;;5.40;83.52
13013;BME280;22580;57.670;12.006;2022-11-20T07:43:42;101194.06;;;5.45;86.08
13013;BME280;22580;57.670;12.006;2022-11-20T07:46:09;101188.69;;;6.26;80.37
13013;BME280;22580;57.670;12.006;2022-11-20T07:48:38;101178.22;;;6.04;81.66
13013;BME280;22580;57.670;12.006;2022-11-20T07:51:05;101176.84;;;6.52;80.36
13013;BME280;22580;57.670;12.006;2022-11-20T07:53:32;101170.88;;;6.66;78.14
13013;BME280;22580;57.670;12.006;2022-11-20T07:56:00;101153.22;;;6.65;77.01
13013;BME280;22580;57.670;12.006;2022-11-20T07:58:29;101147.19;;;6.61;76.28
13013;BME280;22580;57.670;12.006;2022-11-20T08:00:58;101164.63;;;7.37;82.69
13013;BME280;22580;57.670;12.006;2022-11-20T08:03:25;101149.44;;;5.95;84.85
13013;BME280;22580;57.670;12.006;2022-11-20T08:05:54;101166.81;;;7.12;85.37
13013;BME280;22580;57.670;12.006;2022-11-20T08:08:21;101159.31;;;6.67;83.92
13013;BME280;22580;57.670;12.006;2022-11-20T08:10:48;101164.63;;;7.87;79.93
13013;BME280;22580;57.670;12.006;2022-11-20T08:13:15;101166.56;;;7.68;82.35
13013;BME280;22580;57.670;12.006;2022-11-20T08:15:59;101158.59;;;7.51;83.32
13013;BME280;22580;57.670;12.006;2022-11-20T08:18:27;101132.53;;;7.75;78.34
13013;BME280;22580;57.670;12.006;2022-11-20T08:20:55;101139.34;;;7.96;73.09
13013;BME280;22580;57.670;12.006;2022-11-20T08:23:22;101132.00;;;7.68;72.22
13013;BME280;22580;57.670;12.006;2022-11-20T08:25:50;101148.75;;;7.53;72.46
13013;BME280;22580;57.670;12.006;2022-11-20T08:28:18;101097.78;;;6.76;74.87
13013;BME280;22580;57.670;12.006;2022-11-20T08:30:45;101152.69;;;6.75;77.67
13013;BME280;22580;57.670;12.006;2022-11-20T08:33:12;101136.22;;;6.31;78.25
13013;BME280;22580;57.670;12.006;2022-11-20T08:35:39;101147.00;;;6.28;80.58
13013;BME280;22580;57.670;12.006;2022-11-20T08:38:09;101158.84;;;5.82;81.60
13013;BME280;22580;57.670;12.006;2022-11-20T08:40:37;101118.63;;;6.47;79.02
13013;BME280;22580;57.670;12.006;2022-11-20T08:43:04;101145.38;;;7.15;76.35
13013;BME280;22580;57.670;12.006;2022-11-20T08:45:31;101150.94;;;6.38;79.77
13013;BME280;22580;57.670;12.006;2022-11-20T08:48:00;101130.63;;;7.27;75.43
13013;BME280;22580;57.670;12.006;2022-11-20T08:50:27;101147.94;;;6.99;76.17
13013;BME280;22580;57.670;12.006;2022-11-20T08:53:02;101134.28;;;7.59;71.58
13013;BME280;22580;57.670;12.006;2022-11-20T08:55:32;101135.22;;;6.88;75.08
13013;BME280;22580;57.670;12.006;2022-11-20T08:58:06;101136.09;;;5.76;80.08
13013;BME280;22580;57.670;12.006;2022-11-20T09:00:33;101146.72;;;6.89;76.28
13013;BME280;22580;57.670;12.006;2022-11-20T09:03:02;101142.34;;;7.40;76.22
13013;BME280;22580;57.670;12.006;2022-11-20T09:05:29;101136.63;;;7.13;84.57
13013;BME280;22580;57.670;12.006;2022-11-20T09:07:57;101138.69;;;8.24;78.87
13013;BME280;22580;57.670;12.006;2022-11-20T09:10:24;101107.50;;;8.73;77.46
13013;BME280;22580;57.670;12.006;2022-11-20T09:12:53;101111.41;;;9.28;71.38
13013;BME280;22580;57.670;12.006;2022-11-20T09:15:23;101133.50;;;8.54;68.12
13013;BME280;22580;57.670;12.006;2022-11-20T09:17:54;101134.59;;;7.85;70.59
13013;BME280;22580;57.670;12.006;2022-11-20T09:20:21;101110.13;;;7.95;68.61
13013;BME280;22580;57.670;12.006;2022-11-20T09:22:48;101129.19;;;6.85;74.32
13013;BME280;22580;57.670;12.006;2022-11-20T09:25:16;101132.53;;;6.71;76.65
13013;BME280;22580;57.670;12.006;2022-11-20T09:27:43;101131.56;;;6.36;77.08
13013;BME280;22580;57.670;12.006;2022-11-20T09:30:14;101119.91;;;6.57;76.21
13013;BME280;22580;57.670;12.006;2022-11-20T09:32:42;101122.16;;;7.53;73.19
13013;BME280;22580;57.670;12.006;2022-11-20T09:35:09;101049.34;;;6.16;76.27
13013;BME280;22580;57.670;12.006;2022-11-20T09:37:37;101117.91;;;6.63;76.86
13013;BME280;22580;57.670;12.006;2022-11-20T09:40:06;101018.44;;;5.01;79.50
13013;BME280;22580;57.670;12.006;2022-11-20T09:42:39;101086.88;;;6.63;76.40
13013;BME280;22580;57.670;12.006;2022-11-20T09:45:34;101099.31;;;7.32;73.24
13013;BME280;22580;57.670;12.006;2022-11-20T09:48:32;101102.78;;;7.16;72.94
13013;BME280;22580;57.670;12.006;2022-11-20T09:51:10;101080.53;;;6.48;75.56
13013;BME280;22580;57.670;12.006;2022-11-20T09:53:49;101054.59;;;6.17;77.09
13013;BME280;22580;57.670;12.006;2022-11-20T09:56:25;101069.63;;;6.36;76.62
13013;BME280;22580;57.670;12.006;2022-11-20T09:58:55;101040.03;;;6.79;75.16
13013;BME280;22580;57.670;12.006;2022-11-20T10:01:30;101068.59;;;7.09;74.05
13013;BME280;22580;57.670;12.006;2022-11-20T10:04:01;101064.16;;;7.09;73.84
13013;BME280;22580;57.670;12.006;2022-11-20T10:06:34;101078.22;;;8.10;69.64
13013;BME280;22580;57.670;12.006;2022-11-20T10:09:16;101020.41;;;7.32;71.05
13013;BME280;22580;57.670;12.006;2022-11-20T10:11:54;101061.97;;;7.17;72.50
13013;BME280;22580;57.670;12.006;2022-11-20T10:14:32;101050.75;;;6.06;77.70
13013;BME280;22580;57.670;12.006;2022-11-20T10:17:15;101066.13;;;6.88;79.47
13013;BME280;22580;57.670;12.006;2022-11-20T10:19:56;101015.75;;;7.53;81.57
13013;BME280;22580;57.670;12.006;2022-11-20T10:22:39;100970.56;;;8.30;74.92
13013;BME280;22580;57.670;12.006;2022-11-20T10:25:14;100997.50;;;8.85;67.35
13013;BME280;22580;57.670;12.006;2022-11-20T10:28:02;101054.25;;;9.60;63.61
13013;BME280;22580;57.670;12.006;2022-11-20T10:30:37;101065.41;;;7.02;72.08
13013;BME280;22580;57.670;12.006;2022-11-20T10:33:13;101011.13;;;6.73;76.64
13013;BME280;22580;57.670;12.006;2022-11-20T10:35:44;101052.25;;;7.16;76.41
13013;BME280;22580;57.670;12.006;2022-11-20T10:38:16;101013.53;;;7.61;72.21
13013;BME280;22580;57.670;12.006;2022-11-20T10:40:47;101040.09;;;6.61;77.82
13013;BME280;22580;57.670;12.006;2022-11-20T10:43:18;100983.53;;;6.76;76.88
13013;BME280;22580;57.670;12.006;2022-11-20T10:45:51;101028.53;;;6.79;76.92
13013;BME280;22580;57.670;12.006;2022-11-20T10:48:23;101018.84;;;7.28;75.48
13013;BME280;22580;57.670;12.006;2022-11-20T10:51:10;101015.28;;;8.85;70.47
13013;BME280;22580;57.670;12.006;2022-11-20T10:54:03;101004.44;;;9.46;66.76
13013;BME280;22580;57.670;12.006;2022-11-20T10:56:39;100982.94;;;8.47;69.04
13013;BME280;22580;57.670;12.006;2022-11-20T10:59:36;100979.81;;;8.54;68.29
13013;BME280;22580;57.670;12.006;2022-11-20T11:02:19;100980.72;;;8.83;68.07
13013;BME280;22580;57.670;12.006;2022-11-20T11:04:50;100995.59;;;8.87;67.54
13013;BME280;22580;57.670;12.006;2022-11-20T11:07:21;100922.41;;;9.07;66.22
13013;BME280;22580;57.670;12.006;2022-11-20T11:09:50;100977.47;;;9.51;65.62
13013;BME280;22580;57.670;12.006;2022-11-20T11:12:19;100990.28;;;9.02;66.18
13013;BME280;22580;57.670;12.006;2022-11-20T11:14:48;100996.09;;;8.34;68.96
13013;BME280;22580;57.670;12.006;2022-11-20T11:17:27;100976.56;;;8.49;69.26
13013;BME280;22580;57.670;12.006;2022-11-20T11:20:06;100975.25;;;8.57;67.35
13013;BME280;22580;57.670;12.006;2022-11-20T11:22:45;100979.19;;;7.88;70.07
13013;BME280;22580;57.670;12.006;2022-11-20T11:25:27;100970.50;;;7.84;71.16
13013;BME280;22580;57.670;12.006;2022-11-20T11:27:56;100949.69;;;9.53;67.99
13013;BME280;22580;57.670;12.006;2022-11-20T11:30:25;100951.72;;;9.50;65.47
13013;BME280;22580;57.670;12.006;2022-11-20T11:33:06;100956.50;;;9.02;67.41
13013;BME280;22580;57.670;12.006;2022-11-20T11:35:43;100969.34;;;8.96;67.20
13013;BME280;22580;57.670;12.006;2022-11-20T11:38:13;100949.88;;;9.65;65.58
13013;BME280;22580;57.670;12.006;2022-11-20T11:40:42;100955.06;;;8.97;67.19
13013;BME280;22580;57.670;12.006;2022-11-20T11:43:18;100926.59;;;9.11;67.05
13013;BME280;22580;57.670;12.006;2022-11-20T11:46:14;100921.53;;;8.64;67.33
13013;BME280;22580;57.670;12.006;2022-11-20T11:48:55;100849.56;;;8.78;64.82
13013;BME280;22580;57.670;12.006;2022-11-20T11:51:26;100938.31;;;9.09;66.19
13013;BME280;22580;57.670;12.006;2022-11-20T11:53:56;100938.22;;;9.10;65.82
13013;BME280;22580;57.670;12.006;2022-11-20T11:56:26;100930.59;;;9.33;65.67
13013;BME280;22580;57.670;12.006;2022-11-20T11:58:57;100905.69;;;9.46;64.43
13013;BME280;22580;57.670;12.006;2022-11-20T12:01:31;100893.63;;;8.98;65.37
13013;BME280;22580;57.670;12.006;2022-11-20T12:04:05;100894.38;;;8.86;66.33
13013;BME280;22580;57.670;12.006;2022-11-20T12:06:44;100900.28;;;8.63;67.21
13013;BME280;22580;57.670;12.006;2022-11-20T12:09:12;100880.50;;;8.81;66.29
13013;BME280;22580;57.670;12.006;2022-11-20T12:11:44;100847.44;;;9.12;65.13
13013;BME280;22580;57.670;12.006;2022-11-20T12:14:17;100901.16;;;9.61;63.86
13013;BME280;22580;57.670;12.006;2022-11-20T12:16:53;100906.28;;;9.51;64.42
13013;BME280;22580;57.670;12.006;2022-11-20T12:19:34;100895.06;;;9.32;64.22
13013;BME280;22580;57.670;12.006;2022-11-20T12:22:12;100898.50;;;9.61;62.59
13013;BME280;22580;57.670;12.006;2022-11-20T12:24:52;100892.84;;;9.39;64.09
13013;BME280;22580;57.670;12.006;2022-11-20T12:27:59;100895.06;;;8.90;64.75
13013;BME280;22580;57.670;12.006;2022-11-20T12:30:32;100870.44;;;9.68;62.32
13013;BME280;22580;57.670;12.006;2022-11-20T12:33:12;100871.47;;;9.80;62.67
13013;BME280;22580;57.670;12.006;2022-11-20T12:35:58;100875.16;;;9.09;63.93
13013;BME280;22580;57.670;12.006;2022-11-20T12:39:11;100872.28;;;9.27;64.75
13013;BME280;22580;57.670;12.006;2022-11-20T12:45:14;100862.41;;;9.14;65.07
13013;BME280;22580;57.670;12.006;2022-11-20T12:51:06;100866.38;;;9.36;64.07
13013;BME280;22580;57.670;12.006;2022-11-20T12:53:41;100852.22;;;8.93;65.98
13013;BME280;22580;57.670;12.006;2022-11-20T12:56:21;100847.75;;;9.48;63.75
13013;BME280;22580;57.670;12.006;2022-11-20T12:59:02;100848.88;;;8.46;68.11
13013;BME280;22580;57.670;12.006;2022-11-20T13:01:39;100854.41;;;8.43;68.15
13013;BME280;22580;57.670;12.006;2022-11-20T13:04:16;100838.59;;;8.83;66.89
13013;BME280;22580;57.670;12.006;2022-11-20T13:06:45;100843.81;;;9.27;65.10
13013;BME280;22580;57.670;12.006;2022-11-20T13:09:15;100843.56;;;8.89;64.82
13013;BME280;22580;57.670;12.006;2022-11-20T13:12:01;100843.19;;;8.52;65.58
13013;BME280;22580;57.670;12.006;2022-11-20T13:14:33;100835.81;;;9.13;64.63